sensor_id;sensor_type;location;lat;lon;timestamp;P1;durP1;ratioP1;P2;durP2;ratioP2
8371;SDS011;4223;48.724;8.982;2022-08-05T00:01:18;1.50;;;1.50;;
8371;SDS011;4223;48.724;8.982;2022-08-05T00:03:48;1.30;;;1.30;;
8371;SDS011;4223;48.724;8.982;2022-08-05T00:06:15;1.20;;;1.20;;
8371;SDS011;4223;48.724;8.982;2022-08-05T00:08:42;1.13;;;1.13;;
8371;SDS011;4223;48.724;8.982;2022-08-05T00:11:11;4.80;;;2.07;;
8371;SDS011;4223;48.724;8.982;2022-08-05T00:13:40;1.50;;;1.50;;
8371;SDS011;4223;48.724;8.982;2022-08-05T00:16:09;1.17;;;1.17;;
8371;SDS011;4223;48.724;8.982;2022-08-05T00:18:37;1.57;;;1.57;;
8371;SDS011;4223;48.724;8.982;2022-08-05T00:21:07;1.30;;;1.30;;
8371;SDS011;4223;48.724;8.982;2022-08-05T00:23:34;1.90;;;1.80;;
8371;SDS011;4223;48.724;8.982;2022-08-05T00:26:01;2.00;;;1.90;;
8371;SDS011;4223;48.724;8.982;2022-08-05T00:28:28;1.97;;;1.77;;
8371;SDS011;4223;48.724;8.982;2022-08-05T00:30:55;1.60;;;1.60;;
8371;SDS011;4223;48.724;8.982;2022-08-05T00:33:22;1.30;;;1.30;;
8371;SDS011;4223;48.724;8.982;2022-08-05T00:35:49;1.80;;;1.80;;
8371;SDS011;4223;48.724;8.982;2022-08-05T00:38:17;1.17;;;1.17;;
8371;SDS011;4223;48.724;8.982;2022-08-05T00:40:44;4.40;;;1.70;;
8371;SDS011;4223;48.724;8.982;2022-08-05T00:43:12;1.17;;;1.17;;
8371;SDS011;4223;48.724;8.982;2022-08-05T00:45:39;1.07;;;1.07;;
8371;SDS011;4223;48.724;8.982;2022-08-05T00:48:07;1.10;;;1.10;;
8371;SDS011;4223;48.724;8.982;2022-08-05T00:50:34;2.10;;;1.70;;
8371;SDS011;4223;48.724;8.982;2022-08-05T00:53:01;1.43;;;1.43;;
8371;SDS011;4223;48.724;8.982;2022-08-05T00:55:30;1.53;;;1.43;;
8371;SDS011;4223;48.724;8.982;2022-08-05T00:57:56;1.20;;;1.20;;
8371;SDS011;4223;48.724;8.982;2022-08-05T01:00:23;1.33;;;1.33;;
8371;SDS011;4223;48.724;8.982;2022-08-05T01:02:50;1.77;;;1.60;;
8371;SDS011;4223;48.724;8.982;2022-08-05T01:05:17;1.17;;;1.17;;
8371;SDS011;4223;48.724;8.982;2022-08-05T01:07:44;1.30;;;1.30;;
8371;SDS011;4223;48.724;8.982;2022-08-05T01:10:11;1.60;;;1.37;;
8371;SDS011;4223;48.724;8.982;2022-08-05T01:12:43;1.33;;;1.33;;
8371;SDS011;4223;48.724;8.982;2022-08-05T01:15:13;7.40;;;1.67;;
8371;SDS011;4223;48.724;8.982;2022-08-05T01:17:48;1.20;;;1.20;;
8371;SDS011;4223;48.724;8.982;2022-08-05T01:20:19;1.87;;;1.63;;
8371;SDS011;4223;48.724;8.982;2022-08-05T01:22:57;1.03;;;1.03;;
8371;SDS011;4223;48.724;8.982;2022-08-05T01:25:35;1.23;;;1.23;;
8371;SDS011;4223;48.724;8.982;2022-08-05T01:28:16;1.80;;;1.33;;
8371;SDS011;4223;48.724;8.982;2022-08-05T01:30:50;1.33;;;1.33;;
8371;SDS011;4223;48.724;8.982;2022-08-05T01:33:20;1.07;;;1.07;;
8371;SDS011;4223;48.724;8.982;2022-08-05T01:35:54;1.20;;;1.20;;
8371;SDS011;4223;48.724;8.982;2022-08-05T01:38:24;5.00;;;1.47;;
8371;SDS011;4223;48.724;8.982;2022-08-05T01:40:52;1.07;;;1.07;;
8371;SDS011;4223;48.724;8.982;2022-08-05T01:43:21;7.83;;;1.30;;
8371;SDS011;4223;48.724;8.982;2022-08-05T01:45:50;0.90;;;0.90;;
8371;SDS011;4223;48.724;8.982;2022-08-05T01:48:19;3.20;;;1.43;;
8371;SDS011;4223;48.724;8.982;2022-08-05T01:50:47;1.00;;;1.00;;
8371;SDS011;4223;48.724;8.982;2022-08-05T01:53:15;1.10;;;1.10;;
8371;SDS011;4223;48.724;8.982;2022-08-05T01:55:46;1.70;;;1.33;;
8371;SDS011;4223;48.724;8.982;2022-08-05T01:58:16;1.60;;;1.50;;
8371;SDS011;4223;48.724;8.982;2022-08-05T02:00:49;0.77;;;0.77;;
8371;SDS011;4223;48.724;8.982;2022-08-05T02:03:18;1.40;;;1.30;;
8371;SDS011;4223;48.724;8.982;2022-08-05T02:05:46;1.33;;;1.33;;
8371;SDS011;4223;48.724;8.982;2022-08-05T02:08:15;1.50;;;1.47;;
8371;SDS011;4223;48.724;8.982;2022-08-05T02:10:43;1.07;;;1.07;;
8371;SDS011;4223;48.724;8.982;2022-08-05T02:13:15;1.20;;;1.20;;
8371;SDS011;4223;48.724;8.982;2022-08-05T02:15:44;7.27;;;1.50;;
8371;SDS011;4223;48.724;8.982;2022-08-05T02:18:17;1.00;;;1.00;;
8371;SDS011;4223;48.724;8.982;2022-08-05T02:20:51;0.80;;;0.80;;
8371;SDS011;4223;48.724;8.982;2022-08-05T02:23:22;1.13;;;1.13;;
8371;SDS011;4223;48.724;8.982;2022-08-05T02:26:01;1.40;;;1.40;;
8371;SDS011;4223;48.724;8.982;2022-08-05T02:28:30;1.13;;;1.13;;
8371;SDS011;4223;48.724;8.982;2022-08-05T02:30:59;2.00;;;1.80;;
8371;SDS011;4223;48.724;8.982;2022-08-05T02:33:33;1.00;;;1.00;;
8371;SDS011;4223;48.724;8.982;2022-08-05T02:36:03;1.30;;;1.30;;
8371;SDS011;4223;48.724;8.982;2022-08-05T02:38:31;1.90;;;1.57;;
8371;SDS011;4223;48.724;8.982;2022-08-05T02:40:59;1.20;;;1.20;;
8371;SDS011;4223;48.724;8.982;2022-08-05T02:43:28;2.73;;;1.50;;
8371;SDS011;4223;48.724;8.982;2022-08-05T02:45:57;0.90;;;0.90;;
8371;SDS011;4223;48.724;8.982;2022-08-05T02:48:26;1.90;;;1.37;;
8371;SDS011;4223;48.724;8.982;2022-08-05T02:50:56;1.10;;;1.10;;
8371;SDS011;4223;48.724;8.982;2022-08-05T02:53:25;1.50;;;1.40;;
8371;SDS011;4223;48.724;8.982;2022-08-05T02:55:53;1.20;;;1.20;;
8371;SDS011;4223;48.724;8.982;2022-08-05T02:58:22;1.20;;;1.10;;
8371;SDS011;4223;48.724;8.982;2022-08-05T03:00:50;1.03;;;1.03;;
8371;SDS011;4223;48.724;8.982;2022-08-05T03:03:20;2.20;;;1.30;;
8371;SDS011;4223;48.724;8.982;2022-08-05T03:05:48;0.90;;;0.90;;
8371;SDS011;4223;48.724;8.982;2022-08-05T03:08:17;1.40;;;1.30;;
8371;SDS011;4223;48.724;8.982;2022-08-05T03:10:44;0.90;;;0.90;;
8371;SDS011;4223;48.724;8.982;2022-08-05T03:13:11;1.10;;;1.10;;
8371;SDS011;4223;48.724;8.982;2022-08-05T03:15:40;1.07;;;1.07;;
8371;SDS011;4223;48.724;8.982;2022-08-05T03:18:08;1.20;;;1.20;;
8371;SDS011;4223;48.724;8.982;2022-08-05T03:20:35;1.50;;;1.40;;
8371;SDS011;4223;48.724;8.982;2022-08-05T03:23:03;1.23;;;1.23;;
8371;SDS011;4223;48.724;8.982;2022-08-05T03:25:33;1.50;;;1.50;;
8371;SDS011;4223;48.724;8.982;2022-08-05T03:28:01;8.77;;;1.63;;
8371;SDS011;4223;48.724;8.982;2022-08-05T03:30:30;1.73;;;1.63;;
8371;SDS011;4223;48.724;8.982;2022-08-05T03:32:58;1.33;;;1.33;;
8371;SDS011;4223;48.724;8.982;2022-08-05T03:35:26;1.97;;;1.83;;
8371;SDS011;4223;48.724;8.982;2022-08-05T03:37:55;2.67;;;1.40;;
8371;SDS011;4223;48.724;8.982;2022-08-05T03:40:22;1.37;;;1.37;;
8371;SDS011;4223;48.724;8.982;2022-08-05T03:42:51;1.23;;;1.23;;
8371;SDS011;4223;48.724;8.982;2022-08-05T03:45:18;1.17;;;1.17;;
8371;SDS011;4223;48.724;8.982;2022-08-05T03:47:45;1.20;;;1.20;;
8371;SDS011;4223;48.724;8.982;2022-08-05T03:50:12;1.17;;;1.17;;
8371;SDS011;4223;48.724;8.982;2022-08-05T03:52:41;1.10;;;1.10;;
8371;SDS011;4223;48.724;8.982;2022-08-05T03:55:16;0.97;;;0.97;;
8371;SDS011;4223;48.724;8.982;2022-08-05T03:57:50;1.00;;;1.00;;
8371;SDS011;4223;48.724;8.982;2022-08-05T04:00:18;1.50;;;1.43;;
8371;SDS011;4223;48.724;8.982;2022-08-05T04:02:50;1.33;;;1.33;;
8371;SDS011;4223;48.724;8.982;2022-08-05T04:05:20;3.60;;;1.60;;
8371;SDS011;4223;48.724;8.982;2022-08-05T04:07:48;1.30;;;1.30;;
8371;SDS011;4223;48.724;8.982;2022-08-05T04:10:16;2.03;;;1.83;;
8371;SDS011;4223;48.724;8.982;2022-08-05T04:12:44;1.43;;;1.43;;
8371;SDS011;4223;48.724;8.982;2022-08-05T04:15:12;1.60;;;1.27;;
8371;SDS011;4223;48.724;8.982;2022-08-05T04:17:40;3.30;;;1.43;;
8371;SDS011;4223;48.724;8.982;2022-08-05T04:20:09;1.10;;;1.10;;
8371;SDS011;4223;48.724;8.982;2022-08-05T04:22:43;1.37;;;1.20;;
8371;SDS011;4223;48.724;8.982;2022-08-05T04:25:10;4.17;;;1.77;;
8371;SDS011;4223;48.724;8.982;2022-08-05T04:27:37;2.07;;;1.53;;
8371;SDS011;4223;48.724;8.982;2022-08-05T04:30:05;2.53;;;1.10;;
8371;SDS011;4223;48.724;8.982;2022-08-05T04:32:33;1.63;;;1.50;;
8371;SDS011;4223;48.724;8.982;2022-08-05T04:35:00;1.60;;;1.60;;
8371;SDS011;4223;48.724;8.982;2022-08-05T04:37:27;1.17;;;1.17;;
8371;SDS011;4223;48.724;8.982;2022-08-05T04:39:54;1.80;;;1.70;;
8371;SDS011;4223;48.724;8.982;2022-08-05T04:42:22;1.30;;;1.30;;
8371;SDS011;4223;48.724;8.982;2022-08-05T04:44:48;1.40;;;1.37;;
8371;SDS011;4223;48.724;8.982;2022-08-05T04:47:15;1.33;;;1.33;;
8371;SDS011;4223;48.724;8.982;2022-08-05T04:49:43;1.70;;;1.60;;
8371;SDS011;4223;48.724;8.982;2022-08-05T04:52:10;2.13;;;2.03;;
8371;SDS011;4223;48.724;8.982;2022-08-05T04:54:37;1.17;;;1.17;;
8371;SDS011;4223;48.724;8.982;2022-08-05T04:57:04;1.63;;;1.63;;
8371;SDS011;4223;48.724;8.982;2022-08-05T04:59:31;1.90;;;1.80;;
8371;SDS011;4223;48.724;8.982;2022-08-05T05:01:58;1.40;;;1.40;;
8371;SDS011;4223;48.724;8.982;2022-08-05T05:04:25;1.23;;;1.23;;
8371;SDS011;4223;48.724;8.982;2022-08-05T05:06:53;1.27;;;1.27;;
8371;SDS011;4223;48.724;8.982;2022-08-05T05:09:20;1.83;;;1.73;;
8371;SDS011;4223;48.724;8.982;2022-08-05T05:11:47;2.00;;;1.90;;
8371;SDS011;4223;48.724;8.982;2022-08-05T05:14:13;1.93;;;1.83;;
8371;SDS011;4223;48.724;8.982;2022-08-05T05:16:40;2.37;;;2.27;;
8371;SDS011;4223;48.724;8.982;2022-08-05T05:19:07;1.77;;;1.77;;
8371;SDS011;4223;48.724;8.982;2022-08-05T05:21:34;2.47;;;2.17;;
8371;SDS011;4223;48.724;8.982;2022-08-05T05:24:02;1.20;;;1.20;;
8371;SDS011;4223;48.724;8.982;2022-08-05T05:26:30;2.07;;;1.97;;
8371;SDS011;4223;48.724;8.982;2022-08-05T05:28:57;1.80;;;1.73;;
8371;SDS011;4223;48.724;8.982;2022-08-05T05:31:23;5.77;;;2.27;;
8371;SDS011;4223;48.724;8.982;2022-08-05T05:33:50;1.40;;;1.40;;
8371;SDS011;4223;48.724;8.982;2022-08-05T05:36:17;1.37;;;1.37;;
8371;SDS011;4223;48.724;8.982;2022-08-05T05:38:44;1.70;;;1.70;;
8371;SDS011;4223;48.724;8.982;2022-08-05T05:41:12;1.90;;;1.80;;
8371;SDS011;4223;48.724;8.982;2022-08-05T05:43:39;2.30;;;2.03;;
8371;SDS011;4223;48.724;8.982;2022-08-05T05:46:06;2.20;;;2.00;;
8371;SDS011;4223;48.724;8.982;2022-08-05T05:48:33;1.90;;;1.80;;
8371;SDS011;4223;48.724;8.982;2022-08-05T05:51:00;1.33;;;1.33;;
8371;SDS011;4223;48.724;8.982;2022-08-05T05:53:27;2.97;;;2.13;;
8371;SDS011;4223;48.724;8.982;2022-08-05T05:55:54;1.90;;;1.67;;
8371;SDS011;4223;48.724;8.982;2022-08-05T05:58:22;4.00;;;2.07;;
8371;SDS011;4223;48.724;8.982;2022-08-05T06:00:49;2.23;;;2.20;;
8371;SDS011;4223;48.724;8.982;2022-08-05T06:03:16;2.03;;;1.93;;
8371;SDS011;4223;48.724;8.982;2022-08-05T06:05:43;2.83;;;2.40;;
8371;SDS011;4223;48.724;8.982;2022-08-05T06:08:10;2.20;;;2.10;;
8371;SDS011;4223;48.724;8.982;2022-08-05T06:10:37;2.27;;;1.90;;
8371;SDS011;4223;48.724;8.982;2022-08-05T06:13:04;2.80;;;2.60;;
8371;SDS011;4223;48.724;8.982;2022-08-05T06:15:32;2.10;;;2.00;;
8371;SDS011;4223;48.724;8.982;2022-08-05T06:17:59;1.80;;;1.70;;
8371;SDS011;4223;48.724;8.982;2022-08-05T06:20:25;2.00;;;1.90;;
8371;SDS011;4223;48.724;8.982;2022-08-05T06:22:52;2.13;;;2.03;;
8371;SDS011;4223;48.724;8.982;2022-08-05T06:25:19;1.70;;;1.70;;
8371;SDS011;4223;48.724;8.982;2022-08-05T06:27:46;2.00;;;1.90;;
8371;SDS011;4223;48.724;8.982;2022-08-05T06:30:13;1.47;;;1.40;;
8371;SDS011;4223;48.724;8.982;2022-08-05T06:32:42;1.40;;;1.40;;
8371;SDS011;4223;48.724;8.982;2022-08-05T06:35:09;1.60;;;1.60;;
8371;SDS011;4223;48.724;8.982;2022-08-05T06:37:36;1.50;;;1.50;;
8371;SDS011;4223;48.724;8.982;2022-08-05T06:40:04;4.40;;;1.87;;
8371;SDS011;4223;48.724;8.982;2022-08-05T06:42:31;1.30;;;1.30;;
8371;SDS011;4223;48.724;8.982;2022-08-05T06:44:58;1.93;;;1.87;;
8371;SDS011;4223;48.724;8.982;2022-08-05T06:47:25;1.03;;;1.03;;
8371;SDS011;4223;48.724;8.982;2022-08-05T06:49:53;1.70;;;1.43;;
8371;SDS011;4223;48.724;8.982;2022-08-05T06:52:20;1.50;;;1.50;;
8371;SDS011;4223;48.724;8.982;2022-08-05T06:54:47;1.30;;;1.30;;
8371;SDS011;4223;48.724;8.982;2022-08-05T06:57:14;1.30;;;1.30;;
8371;SDS011;4223;48.724;8.982;2022-08-05T06:59:42;1.83;;;1.73;;
8371;SDS011;4223;48.724;8.982;2022-08-05T07:02:09;1.17;;;1.17;;
8371;SDS011;4223;48.724;8.982;2022-08-05T07:04:36;0.70;;;0.70;;
8371;SDS011;4223;48.724;8.982;2022-08-05T07:07:04;1.47;;;1.43;;
8371;SDS011;4223;48.724;8.982;2022-08-05T07:09:31;0.70;;;0.70;;
8371;SDS011;4223;48.724;8.982;2022-08-05T07:11:59;4.70;;;1.20;;
8371;SDS011;4223;48.724;8.982;2022-08-05T07:14:26;1.00;;;1.00;;
8371;SDS011;4223;48.724;8.982;2022-08-05T07:17:10;0.80;;;0.80;;
8371;SDS011;4223;48.724;8.982;2022-08-05T07:19:37;2.63;;;1.00;;
8371;SDS011;4223;48.724;8.982;2022-08-05T07:22:05;14.80;;;1.15;;
8371;SDS011;4223;48.724;8.982;2022-08-05T07:24:32;2.23;;;1.17;;
8371;SDS011;4223;48.724;8.982;2022-08-05T07:26:59;1.75;;;0.90;;
8371;SDS011;4223;48.724;8.982;2022-08-05T07:29:26;2.13;;;0.80;;
8371;SDS011;4223;48.724;8.982;2022-08-05T07:31:52;1.02;;;0.98;;
8371;SDS011;4223;48.724;8.982;2022-08-05T07:34:19;0.70;;;0.70;;
8371;SDS011;4223;48.724;8.982;2022-08-05T07:36:46;0.75;;;0.75;;
8371;SDS011;4223;48.724;8.982;2022-08-05T07:39:15;0.50;;;0.50;;
8371;SDS011;4223;48.724;8.982;2022-08-05T07:41:41;0.90;;;0.90;;
8371;SDS011;4223;48.724;8.982;2022-08-05T07:44:08;1.17;;;1.17;;
8371;SDS011;4223;48.724;8.982;2022-08-05T07:46:35;1.10;;;0.90;;
8371;SDS011;4223;48.724;8.982;2022-08-05T07:49:02;0.90;;;0.90;;
8371;SDS011;4223;48.724;8.982;2022-08-05T07:51:29;0.93;;;0.93;;
8371;SDS011;4223;48.724;8.982;2022-08-05T07:54:00;0.88;;;0.88;;
8371;SDS011;4223;48.724;8.982;2022-08-05T07:56:28;0.80;;;0.75;;
8371;SDS011;4223;48.724;8.982;2022-08-05T07:58:55;0.70;;;0.70;;
8371;SDS011;4223;48.724;8.982;2022-08-05T08:01:22;0.82;;;0.82;;
8371;SDS011;4223;48.724;8.982;2022-08-05T08:03:50;1.13;;;1.13;;
8371;SDS011;4223;48.724;8.982;2022-08-05T08:06:17;0.80;;;0.80;;
8371;SDS011;4223;48.724;8.982;2022-08-05T08:08:44;1.10;;;1.10;;
8371;SDS011;4223;48.724;8.982;2022-08-05T08:11:11;1.08;;;1.08;;
8371;SDS011;4223;48.724;8.982;2022-08-05T08:13:40;0.73;;;0.73;;
8371;SDS011;4223;48.724;8.982;2022-08-05T08:16:07;0.88;;;0.88;;
8371;SDS011;4223;48.724;8.982;2022-08-05T08:18:34;0.77;;;0.77;;
8371;SDS011;4223;48.724;8.982;2022-08-05T08:21:01;0.82;;;0.82;;
8371;SDS011;4223;48.724;8.982;2022-08-05T08:23:28;0.77;;;0.77;;
8371;SDS011;4223;48.724;8.982;2022-08-05T08:25:55;0.75;;;0.75;;
8371;SDS011;4223;48.724;8.982;2022-08-05T08:28:22;1.10;;;1.02;;
8371;SDS011;4223;48.724;8.982;2022-08-05T08:30:50;1.33;;;0.80;;
8371;SDS011;4223;48.724;8.982;2022-08-05T08:33:17;1.00;;;1.00;;
8371;SDS011;4223;48.724;8.982;2022-08-05T08:35:44;0.50;;;0.50;;
8371;SDS011;4223;48.724;8.982;2022-08-05T08:38:10;0.98;;;0.98;;
8371;SDS011;4223;48.724;8.982;2022-08-05T08:40:40;0.70;;;0.70;;
8371;SDS011;4223;48.724;8.982;2022-08-05T08:43:08;0.88;;;0.88;;
8371;SDS011;4223;48.724;8.982;2022-08-05T08:45:38;0.80;;;0.80;;
8371;SDS011;4223;48.724;8.982;2022-08-05T08:48:07;0.88;;;0.88;;
8371;SDS011;4223;48.724;8.982;2022-08-05T08:50:36;0.77;;;0.55;;
8371;SDS011;4223;48.724;8.982;2022-08-05T08:53:06;0.50;;;0.50;;
8371;SDS011;4223;48.724;8.982;2022-08-05T08:55:34;0.68;;;0.68;;
8371;SDS011;4223;48.724;8.982;2022-08-05T08:58:01;0.85;;;0.85;;
8371;SDS011;4223;48.724;8.982;2022-08-05T09:00:29;1.00;;;1.00;;
8371;SDS011;4223;48.724;8.982;2022-08-05T09:02:56;0.65;;;0.65;;
8371;SDS011;4223;48.724;8.982;2022-08-05T09:05:25;1.08;;;1.05;;
8371;SDS011;4223;48.724;8.982;2022-08-05T09:07:52;1.10;;;1.00;;
8371;SDS011;4223;48.724;8.982;2022-08-05T09:10:19;5.93;;;0.95;;
8371;SDS011;4223;48.724;8.982;2022-08-05T09:12:47;0.77;;;0.77;;
8371;SDS011;4223;48.724;8.982;2022-08-05T09:15:14;0.40;;;0.40;;
8371;SDS011;4223;48.724;8.982;2022-08-05T09:17:41;0.50;;;0.50;;
8371;SDS011;4223;48.724;8.982;2022-08-05T09:20:09;0.90;;;0.90;;
8371;SDS011;4223;48.724;8.982;2022-08-05T09:25:30;0.75;;;0.75;;
8371;SDS011;4223;48.724;8.982;2022-08-05T09:28:04;1.00;;;1.00;;
8371;SDS011;4223;48.724;8.982;2022-08-05T09:30:34;0.90;;;0.90;;
8371;SDS011;4223;48.724;8.982;2022-08-05T09:33:01;0.70;;;0.70;;
8371;SDS011;4223;48.724;8.982;2022-08-05T09:35:29;0.65;;;0.65;;
8371;SDS011;4223;48.724;8.982;2022-08-05T09:37:55;5.32;;;0.77;;
8371;SDS011;4223;48.724;8.982;2022-08-05T09:40:31;0.70;;;0.70;;
8371;SDS011;4223;48.724;8.982;2022-08-05T09:43:00;3.72;;;0.70;;
8371;SDS011;4223;48.724;8.982;2022-08-05T09:45:34;0.55;;;0.55;;
8371;SDS011;4223;48.724;8.982;2022-08-05T09:48:17;0.73;;;0.73;;
8371;SDS011;4223;48.724;8.982;2022-08-05T09:50:47;0.57;;;0.57;;
8371;SDS011;4223;48.724;8.982;2022-08-05T09:53:15;0.63;;;0.63;;
8371;SDS011;4223;48.724;8.982;2022-08-05T09:55:43;0.60;;;0.60;;
8371;SDS011;4223;48.724;8.982;2022-08-05T09:58:10;7.68;;;0.90;;
8371;SDS011;4223;48.724;8.982;2022-08-05T10:00:41;0.60;;;0.60;;
8371;SDS011;4223;48.724;8.982;2022-08-05T10:03:20;1.00;;;1.00;;
8371;SDS011;4223;48.724;8.982;2022-08-05T10:05:59;0.82;;;0.82;;
8371;SDS011;4223;48.724;8.982;2022-08-05T10:08:27;1.10;;;1.10;;
8371;SDS011;4223;48.724;8.982;2022-08-05T10:10:55;1.60;;;0.68;;
8371;SDS011;4223;48.724;8.982;2022-08-05T10:13:26;1.30;;;1.30;;
8371;SDS011;4223;48.724;8.982;2022-08-05T10:15:55;1.25;;;0.82;;
8371;SDS011;4223;48.724;8.982;2022-08-05T10:18:24;1.77;;;0.82;;
8371;SDS011;4223;48.724;8.982;2022-08-05T10:20:53;1.85;;;1.02;;
8371;SDS011;4223;48.724;8.982;2022-08-05T10:23:22;0.77;;;0.77;;
8371;SDS011;4223;48.724;8.982;2022-08-05T10:25:51;6.32;;;0.77;;
8371;SDS011;4223;48.724;8.982;2022-08-05T10:28:20;0.68;;;0.68;;
8371;SDS011;4223;48.724;8.982;2022-08-05T10:30:49;3.10;;;1.23;;
8371;SDS011;4223;48.724;8.982;2022-08-05T10:33:16;0.68;;;0.68;;
8371;SDS011;4223;48.724;8.982;2022-08-05T10:35:44;0.65;;;0.65;;
8371;SDS011;4223;48.724;8.982;2022-08-05T10:38:11;1.50;;;1.02;;
8371;SDS011;4223;48.724;8.982;2022-08-05T10:40:40;0.82;;;0.82;;
8371;SDS011;4223;48.724;8.982;2022-08-05T10:43:15;1.58;;;0.77;;
8371;SDS011;4223;48.724;8.982;2022-08-05T10:45:54;0.70;;;0.70;;
8371;SDS011;4223;48.724;8.982;2022-08-05T10:48:29;0.80;;;0.80;;
8371;SDS011;4223;48.724;8.982;2022-08-05T10:50:59;0.82;;;0.82;;
8371;SDS011;4223;48.724;8.982;2022-08-05T10:53:34;0.85;;;0.85;;
8371;SDS011;4223;48.724;8.982;2022-08-05T10:56:03;0.65;;;0.65;;
8371;SDS011;4223;48.724;8.982;2022-08-05T10:58:32;1.02;;;1.02;;
8371;SDS011;4223;48.724;8.982;2022-08-05T11:01:02;1.00;;;1.00;;
8371;SDS011;4223;48.724;8.982;2022-08-05T11:03:30;0.65;;;0.65;;
8371;SDS011;4223;48.724;8.982;2022-08-05T11:06:08;0.95;;;0.95;;
8371;SDS011;4223;48.724;8.982;2022-08-05T11:08:36;1.10;;;1.08;;
8371;SDS011;4223;48.724;8.982;2022-08-05T11:13:59;0.60;;;0.60;;
8371;SDS011;4223;48.724;8.982;2022-08-05T11:16:26;1.38;;;1.38;;
8371;SDS011;4223;48.724;8.982;2022-08-05T11:21:52;0.95;;;0.95;;
8371;SDS011;4223;48.724;8.982;2022-08-05T11:24:20;0.93;;;0.93;;
8371;SDS011;4223;48.724;8.982;2022-08-05T11:26:48;0.60;;;0.60;;
8371;SDS011;4223;48.724;8.982;2022-08-05T11:29:36;0.40;;;0.40;;
8371;SDS011;4223;48.724;8.982;2022-08-05T11:32:23;0.50;;;0.50;;
8371;SDS011;4223;48.724;8.982;2022-08-05T11:34:51;0.85;;;0.85;;
8371;SDS011;4223;48.724;8.982;2022-08-05T11:37:40;0.90;;;0.90;;
8371;SDS011;4223;48.724;8.982;2022-08-05T11:40:08;0.68;;;0.68;;
8371;SDS011;4223;48.724;8.982;2022-08-05T11:42:37;0.73;;;0.73;;
8371;SDS011;4223;48.724;8.982;2022-08-05T11:45:12;0.65;;;0.65;;
8371;SDS011;4223;48.724;8.982;2022-08-05T11:47:39;0.95;;;0.93;;
8371;SDS011;4223;48.724;8.982;2022-08-05T11:50:07;1.35;;;0.95;;
8371;SDS011;4223;48.724;8.982;2022-08-05T11:52:34;0.60;;;0.60;;
8371;SDS011;4223;48.724;8.982;2022-08-05T11:55:01;0.82;;;0.82;;
8371;SDS011;4223;48.724;8.982;2022-08-05T11:57:30;0.80;;;0.80;;
8371;SDS011;4223;48.724;8.982;2022-08-05T11:59:57;0.80;;;0.80;;
8371;SDS011;4223;48.724;8.982;2022-08-05T12:02:26;1.75;;;0.60;;
8371;SDS011;4223;48.724;8.982;2022-08-05T12:04:55;0.60;;;0.60;;
8371;SDS011;4223;48.724;8.982;2022-08-05T12:07:23;2.17;;;1.35;;
8371;SDS011;4223;48.724;8.982;2022-08-05T12:09:51;0.70;;;0.70;;
8371;SDS011;4223;48.724;8.982;2022-08-05T12:12:20;8.35;;;0.80;;
8371;SDS011;4223;48.724;8.982;2022-08-05T12:14:47;0.70;;;0.70;;
8371;SDS011;4223;48.724;8.982;2022-08-05T12:17:14;0.50;;;0.50;;
8371;SDS011;4223;48.724;8.982;2022-08-05T12:19:45;1.02;;;1.02;;
8371;SDS011;4223;48.724;8.982;2022-08-05T12:22:14;1.85;;;0.50;;
8371;SDS011;4223;48.724;8.982;2022-08-05T12:24:42;0.95;;;0.95;;
8371;SDS011;4223;48.724;8.982;2022-08-05T12:27:17;0.90;;;0.90;;
8371;SDS011;4223;48.724;8.982;2022-08-05T12:29:45;1.05;;;0.93;;
8371;SDS011;4223;48.724;8.982;2022-08-05T12:32:12;1.17;;;1.00;;
8371;SDS011;4223;48.724;8.982;2022-08-05T12:34:39;0.47;;;0.47;;
8371;SDS011;4223;48.724;8.982;2022-08-05T12:37:09;1.38;;;0.90;;
8371;SDS011;4223;48.724;8.982;2022-08-05T12:39:37;1.08;;;0.90;;
8371;SDS011;4223;48.724;8.982;2022-08-05T12:42:11;0.80;;;0.80;;
8371;SDS011;4223;48.724;8.982;2022-08-05T12:44:39;1.20;;;1.10;;
8371;SDS011;4223;48.724;8.982;2022-08-05T12:47:06;0.68;;;0.68;;
8371;SDS011;4223;48.724;8.982;2022-08-05T12:49:40;0.80;;;0.80;;
8371;SDS011;4223;48.724;8.982;2022-08-05T12:52:14;0.60;;;0.60;;
8371;SDS011;4223;48.724;8.982;2022-08-05T12:54:43;0.80;;;0.80;;
8371;SDS011;4223;48.724;8.982;2022-08-05T12:57:11;0.77;;;0.77;;
8371;SDS011;4223;48.724;8.982;2022-08-05T12:59:42;1.17;;;1.17;;
8371;SDS011;4223;48.724;8.982;2022-08-05T13:02:11;0.75;;;0.75;;
8371;SDS011;4223;48.724;8.982;2022-08-05T13:04:41;0.68;;;0.68;;
8371;SDS011;4223;48.724;8.982;2022-08-05T13:07:10;0.60;;;0.60;;
8371;SDS011;4223;48.724;8.982;2022-08-05T13:09:39;1.05;;;1.05;;
8371;SDS011;4223;48.724;8.982;2022-08-05T13:12:09;1.55;;;1.45;;
8371;SDS011;4223;48.724;8.982;2022-08-05T13:14:38;0.85;;;0.85;;
8371;SDS011;4223;48.724;8.982;2022-08-05T13:17:07;1.05;;;1.05;;
8371;SDS011;4223;48.724;8.982;2022-08-05T13:19:35;0.90;;;0.90;;
8371;SDS011;4223;48.724;8.982;2022-08-05T13:22:02;1.00;;;1.00;;
8371;SDS011;4223;48.724;8.982;2022-08-05T13:24:29;2.45;;;1.05;;
8371;SDS011;4223;48.724;8.982;2022-08-05T13:26:57;3.13;;;0.80;;
8371;SDS011;4223;48.724;8.982;2022-08-05T13:29:24;0.90;;;0.90;;
8371;SDS011;4223;48.724;8.982;2022-08-05T13:31:51;0.90;;;0.90;;
8371;SDS011;4223;48.724;8.982;2022-08-05T13:34:18;0.73;;;0.73;;
8371;SDS011;4223;48.724;8.982;2022-08-05T13:36:45;1.17;;;1.17;;
8371;SDS011;4223;48.724;8.982;2022-08-05T13:39:12;0.93;;;0.93;;
8371;SDS011;4223;48.724;8.982;2022-08-05T13:41:38;0.77;;;0.77;;
8371;SDS011;4223;48.724;8.982;2022-08-05T13:44:07;0.82;;;0.82;;
8371;SDS011;4223;48.724;8.982;2022-08-05T13:46:34;0.70;;;0.70;;
8371;SDS011;4223;48.724;8.982;2022-08-05T13:49:00;0.70;;;0.70;;
8371;SDS011;4223;48.724;8.982;2022-08-05T13:51:28;0.77;;;0.77;;
8371;SDS011;4223;48.724;8.982;2022-08-05T13:53:57;0.82;;;0.82;;
8371;SDS011;4223;48.724;8.982;2022-08-05T13:56:24;0.88;;;0.88;;
8371;SDS011;4223;48.724;8.982;2022-08-05T13:58:51;1.10;;;0.98;;
8371;SDS011;4223;48.724;8.982;2022-08-05T14:01:19;0.90;;;0.88;;
8371;SDS011;4223;48.724;8.982;2022-08-05T14:03:46;0.73;;;0.73;;
8371;SDS011;4223;48.724;8.982;2022-08-05T14:06:34;1.25;;;1.25;;
8371;SDS011;4223;48.724;8.982;2022-08-05T14:09:00;0.90;;;0.90;;
8371;SDS011;4223;48.724;8.982;2022-08-05T14:11:28;0.98;;;0.98;;
8371;SDS011;4223;48.724;8.982;2022-08-05T14:13:55;1.02;;;1.00;;
8371;SDS011;4223;48.724;8.982;2022-08-05T14:16:24;0.65;;;0.65;;
8371;SDS011;4223;48.724;8.982;2022-08-05T14:18:51;1.15;;;1.15;;
8371;SDS011;4223;48.724;8.982;2022-08-05T14:21:18;0.88;;;0.88;;
8371;SDS011;4223;48.724;8.982;2022-08-05T14:23:45;1.10;;;1.02;;
8371;SDS011;4223;48.724;8.982;2022-08-05T14:26:12;1.13;;;1.10;;
8371;SDS011;4223;48.724;8.982;2022-08-05T14:28:38;0.95;;;0.95;;
8371;SDS011;4223;48.724;8.982;2022-08-05T14:31:06;1.08;;;1.08;;
8371;SDS011;4223;48.724;8.982;2022-08-05T14:33:34;1.35;;;1.35;;
8371;SDS011;4223;48.724;8.982;2022-08-05T14:36:02;1.15;;;1.15;;
8371;SDS011;4223;48.724;8.982;2022-08-05T14:38:29;1.25;;;1.15;;
8371;SDS011;4223;48.724;8.982;2022-08-05T14:40:56;0.75;;;0.75;;
8371;SDS011;4223;48.724;8.982;2022-08-05T14:43:23;1.00;;;1.00;;
8371;SDS011;4223;48.724;8.982;2022-08-05T14:45:50;0.70;;;0.70;;
8371;SDS011;4223;48.724;8.982;2022-08-05T14:48:17;1.27;;;1.27;;
8371;SDS011;4223;48.724;8.982;2022-08-05T14:50:45;5.82;;;1.17;;
8371;SDS011;4223;48.724;8.982;2022-08-05T14:53:12;1.30;;;1.23;;
8371;SDS011;4223;48.724;8.982;2022-08-05T14:55:39;1.80;;;1.65;;
8371;SDS011;4223;48.724;8.982;2022-08-05T14:58:06;1.00;;;1.00;;
8371;SDS011;4223;48.724;8.982;2022-08-05T15:00:34;1.38;;;1.27;;
8371;SDS011;4223;48.724;8.982;2022-08-05T15:03:01;1.08;;;1.08;;
8371;SDS011;4223;48.724;8.982;2022-08-05T15:05:29;1.17;;;1.17;;
8371;SDS011;4223;48.724;8.982;2022-08-05T15:07:58;0.90;;;0.90;;
8371;SDS011;4223;48.724;8.982;2022-08-05T15:10:25;1.08;;;1.08;;
8371;SDS011;4223;48.724;8.982;2022-08-05T15:12:52;0.68;;;0.68;;
8371;SDS011;4223;48.724;8.982;2022-08-05T15:15:18;1.65;;;0.95;;
8371;SDS011;4223;48.724;8.982;2022-08-05T15:17:45;1.00;;;1.00;;
8371;SDS011;4223;48.724;8.982;2022-08-05T15:20:13;1.20;;;1.20;;
8371;SDS011;4223;48.724;8.982;2022-08-05T15:22:40;10.05;;;1.30;;
8371;SDS011;4223;48.724;8.982;2022-08-05T15:25:09;1.65;;;1.55;;
8371;SDS011;4223;48.724;8.982;2022-08-05T15:27:36;0.95;;;0.95;;
8371;SDS011;4223;48.724;8.982;2022-08-05T15:30:03;1.42;;;1.42;;
8371;SDS011;4223;48.724;8.982;2022-08-05T15:32:31;2.60;;;1.35;;